createdAt,value
2022-10-06T00:00:13.358Z,2.30
2022-10-06T00:00:45.521Z,3.55
2022-10-06T00:01:18.322Z,2.65
2022-10-06T00:01:50.330Z,1.77
2022-10-06T00:02:22.804Z,4.05
2022-10-06T00:02:54.971Z,3.58
2022-10-06T00:03:26.954Z,3.05
2022-10-06T00:03:58.903Z,3.15
2022-10-06T00:04:30.907Z,3.45
2022-10-06T00:05:03.057Z,3.20
2022-10-06T00:05:35.070Z,2.78
2022-10-06T00:06:07.450Z,3.08
2022-10-06T00:06:39.525Z,3.75
2022-10-06T00:07:11.526Z,2.08
2022-10-06T00:07:43.445Z,4.32
2022-10-06T00:08:15.517Z,4.72
2022-10-06T00:08:47.499Z,3.55
2022-10-06T00:09:19.455Z,5.20
2022-10-06T00:09:51.385Z,3.05
2022-10-06T00:10:23.453Z,1.73
2022-10-06T00:10:56.359Z,4.55
2022-10-06T00:11:28.327Z,2.20
2022-10-06T00:12:00.492Z,3.55
2022-10-06T00:12:42.753Z,3.28
2022-10-06T00:13:14.779Z,3.10
2022-10-06T00:13:46.810Z,5.22
2022-10-06T00:14:18.787Z,3.50
2022-10-06T00:14:50.715Z,3.97
2022-10-06T00:15:24.229Z,2.13
2022-10-06T00:15:56.391Z,3.13
2022-10-06T00:16:28.409Z,4.50
2022-10-06T00:17:00.325Z,2.95
2022-10-06T00:17:32.267Z,5.40
2022-10-06T00:18:04.281Z,3.47
2022-10-06T00:18:36.320Z,3.33
2022-10-06T00:19:08.306Z,4.85
2022-10-06T00:19:40.295Z,4.15
2022-10-06T00:20:12.290Z,2.88
2022-10-06T00:20:44.235Z,3.88
2022-10-06T00:21:16.491Z,3.88
2022-10-06T00:21:48.537Z,3.13
2022-10-06T00:22:20.447Z,2.53
2022-10-06T00:22:52.405Z,2.92
2022-10-06T00:23:24.823Z,4.07
2022-10-06T00:23:56.787Z,1.38
2022-10-06T00:24:28.709Z,3.65
2022-10-06T00:25:00.944Z,5.35
2022-10-06T00:25:33.338Z,1.98
2022-10-06T00:26:05.413Z,3.92
2022-10-06T00:26:37.677Z,2.88
2022-10-06T00:27:09.608Z,2.45
2022-10-06T00:27:42.996Z,2.40
2022-10-06T00:28:15.240Z,3.10
2022-10-06T00:28:47.903Z,2.55
2022-10-06T00:29:20.047Z,3.45
2022-10-06T00:29:52.086Z,3.55
2022-10-06T00:30:26.468Z,6.22
2022-10-06T00:31:00.752Z,4.00
2022-10-06T00:31:34.511Z,5.47
2022-10-06T00:32:06.571Z,3.67
2022-10-06T00:32:38.902Z,3.03
2022-10-06T00:33:11.907Z,3.00
2022-10-06T00:33:43.917Z,2.50
2022-10-06T00:34:15.849Z,4.53
2022-10-06T00:34:47.787Z,4.38
2022-10-06T00:35:20.263Z,3.15
2022-10-06T00:35:56.634Z,3.22
2022-10-06T00:36:28.584Z,4.07
2022-10-06T00:37:00.513Z,5.25
2022-10-06T00:37:35.140Z,3.25
2022-10-06T00:38:07.069Z,4.80
2022-10-06T00:38:39.057Z,3.38
2022-10-06T00:39:14.873Z,3.35
2022-10-06T00:39:47.507Z,4.03
2022-10-06T00:40:19.529Z,4.18
2022-10-06T00:40:51.743Z,4.40
2022-10-06T00:41:23.740Z,4.03
2022-10-06T00:41:56.202Z,4.93
2022-10-06T00:42:30.203Z,4.28
2022-10-06T00:43:03.540Z,3.95
2022-10-06T00:43:55.169Z,4.40
2022-10-06T00:44:27.752Z,3.97
2022-10-06T00:45:04.318Z,4.30
2022-10-06T00:45:39.738Z,3.72
2022-10-06T00:46:15.153Z,5.25
2022-10-06T00:46:52.255Z,4.65
2022-10-06T00:47:24.655Z,3.58
2022-10-06T00:47:58.815Z,5.38
2022-10-06T00:48:31.677Z,3.88
2022-10-06T00:49:07.328Z,5.40
2022-10-06T00:49:39.707Z,3.80
2022-10-06T00:50:12.595Z,6.23
2022-10-06T00:50:44.863Z,9.25
2022-10-06T00:51:16.983Z,3.65
2022-10-06T00:51:54.304Z,4.72
2022-10-06T00:52:28.174Z,3.90
2022-10-06T00:53:00.255Z,5.32
2022-10-06T00:53:32.279Z,4.93
2022-10-06T00:54:04.389Z,4.10
2022-10-06T00:54:36.751Z,4.28
2022-10-06T00:55:11.383Z,4.18
2022-10-06T00:55:43.361Z,4.95
2022-10-06T00:56:15.397Z,5.13
2022-10-06T00:56:47.482Z,3.30
2022-10-06T00:57:20.449Z,4.80
2022-10-06T00:57:52.751Z,4.25
2022-10-06T00:58:25.323Z,6.75
2022-10-06T00:58:57.571Z,3.92
2022-10-06T00:59:29.588Z,3.88
2022-10-06T01:00:02.255Z,3.05
2022-10-06T01:00:34.411Z,5.13
2022-10-06T01:01:08.650Z,3.08
2022-10-06T01:01:42.855Z,5.55
2022-10-06T01:02:27.368Z,4.30
2022-10-06T01:03:03.679Z,6.22
2022-10-06T01:03:39.095Z,3.28
2022-10-06T01:04:13.684Z,4.63
2022-10-06T01:04:48.001Z,3.10
2022-10-06T01:05:26.709Z,4.55
2022-10-06T01:05:59.773Z,6.72
2022-10-06T01:06:41.802Z,3.90
2022-10-06T01:07:14.047Z,5.68
2022-10-06T01:07:46.411Z,3.67
2022-10-06T01:08:18.730Z,4.55
2022-10-06T01:08:51.028Z,3.65
2022-10-06T01:09:24.052Z,3.53
2022-10-06T01:09:58.051Z,6.70
2022-10-06T01:10:29.998Z,5.18
2022-10-06T01:11:02.241Z,2.08
2022-10-06T01:11:37.731Z,3.38
2022-10-06T01:12:09.765Z,5.13
2022-10-06T01:12:41.762Z,3.05
2022-10-06T01:13:14.344Z,4.72
2022-10-06T01:13:46.474Z,4.50
2022-10-06T01:14:19.748Z,5.95
2022-10-06T01:14:52.317Z,3.70
2022-10-06T01:15:25.919Z,5.07
2022-10-06T01:16:10.603Z,3.72
2022-10-06T01:16:44.420Z,5.07
2022-10-06T01:17:16.343Z,3.15
2022-10-06T01:17:51.396Z,3.97
2022-10-06T01:18:27.105Z,6.55
2022-10-06T01:19:00.974Z,3.75
2022-10-06T01:19:37.671Z,3.92
2022-10-06T01:20:11.463Z,4.35
2022-10-06T01:20:50.137Z,5.25
2022-10-06T01:21:34.296Z,4.80
2022-10-06T01:22:08.486Z,8.70
2022-10-06T01:22:45.157Z,3.65
2022-10-06T01:23:17.410Z,5.25
2022-10-06T01:23:50.081Z,6.53
2022-10-06T01:24:22.790Z,3.85
2022-10-06T01:24:55.139Z,6.32
2022-10-06T01:25:28.189Z,4.47
2022-10-06T01:26:02.341Z,5.35
2022-10-06T01:26:34.945Z,4.45
2022-10-06T01:27:08.718Z,5.28
2022-10-06T01:27:42.104Z,5.18
2022-10-06T01:28:15.674Z,5.30
2022-10-06T01:28:48.178Z,5.50
2022-10-06T01:29:20.576Z,4.80
2022-10-06T01:29:53.999Z,4.63
2022-10-06T01:30:28.419Z,4.60
2022-10-06T01:31:01.998Z,6.82
2022-10-06T01:31:35.998Z,4.30
2022-10-06T01:32:08.026Z,5.55
2022-10-06T01:32:40.278Z,5.18
2022-10-06T01:33:12.310Z,4.55
2022-10-06T01:33:44.466Z,6.78
2022-10-06T01:34:17.473Z,5.18
2022-10-06T01:34:49.462Z,4.38
2022-10-06T01:35:21.889Z,4.32
2022-10-06T01:35:53.843Z,5.05
2022-10-06T01:36:27.575Z,4.88
2022-10-06T01:36:59.674Z,4.57
2022-10-06T01:37:32.563Z,2.20
2022-10-06T01:38:04.559Z,4.70
2022-10-06T01:38:36.793Z,4.22
2022-10-06T01:39:09.672Z,3.53
2022-10-06T01:39:43.646Z,6.25
2022-10-06T01:40:15.714Z,4.82
2022-10-06T01:40:48.275Z,6.45
2022-10-06T01:41:21.714Z,5.25
2022-10-06T01:41:54.977Z,5.47
2022-10-06T01:42:26.944Z,6.55
2022-10-06T01:42:58.886Z,6.30
2022-10-06T01:43:32.054Z,3.60
2022-10-06T01:44:04.075Z,3.50
2022-10-06T01:44:36.071Z,3.75
2022-10-06T01:45:08.487Z,3.85
2022-10-06T01:45:40.509Z,4.40
2022-10-06T01:46:14.028Z,3.67
2022-10-06T01:46:46.688Z,5.57
2022-10-06T01:47:18.709Z,6.70
2022-10-06T01:47:52.852Z,9.77
2022-10-06T01:48:25.361Z,4.65
2022-10-06T01:48:58.180Z,4.68
2022-10-06T01:49:30.497Z,4.53
2022-10-06T01:50:02.554Z,4.10
2022-10-06T01:50:35.679Z,3.85
2022-10-06T01:51:09.226Z,3.83
2022-10-06T01:51:41.924Z,4.38
2022-10-06T01:52:14.130Z,5.60
2022-10-06T01:52:46.134Z,5.05
2022-10-06T01:53:18.406Z,4.40
2022-10-06T01:53:50.402Z,4.38
2022-10-06T01:54:22.391Z,5.63
2022-10-06T01:54:54.728Z,4.70
2022-10-06T01:55:27.600Z,4.53
2022-10-06T01:56:01.995Z,5.47
2022-10-06T01:56:35.459Z,5.95
2022-10-06T01:57:08.702Z,4.50
2022-10-06T01:57:41.497Z,5.47
2022-10-06T01:58:14.622Z,5.95
2022-10-06T01:58:46.718Z,4.80
2022-10-06T01:59:18.908Z,5.43
2022-10-06T01:59:54.735Z,4.85
2022-10-06T02:00:28.340Z,5.07
2022-10-06T02:01:07.110Z,8.00
2022-10-06T02:01:40.767Z,6.82
2022-10-06T02:02:12.842Z,3.90
2022-10-06T02:02:44.944Z,4.07
2022-10-06T02:03:17.082Z,4.80
2022-10-06T02:03:49.012Z,3.92
2022-10-06T02:04:21.051Z,3.10
2022-10-06T02:04:53.026Z,3.95
2022-10-06T02:05:25.023Z,5.47
2022-10-06T02:05:58.165Z,3.50
2022-10-06T02:06:30.415Z,5.00
2022-10-06T02:07:04.054Z,4.93
2022-10-06T02:07:43.449Z,3.45
2022-10-06T02:08:18.423Z,4.95
2022-10-06T02:08:51.674Z,5.80
2022-10-06T02:09:23.652Z,6.22
2022-10-06T02:09:55.634Z,3.65
2022-10-06T02:10:27.615Z,2.85
2022-10-06T02:11:03.893Z,4.82
2022-10-06T02:11:36.358Z,5.28
2022-10-06T02:12:09.647Z,6.90
2022-10-06T02:12:44.558Z,4.53
2022-10-06T02:13:16.771Z,5.53
2022-10-06T02:13:48.736Z,3.30
2022-10-06T02:14:20.697Z,5.65
2022-10-06T02:14:52.698Z,4.15
2022-10-06T02:15:25.064Z,7.03
2022-10-06T02:15:57.681Z,4.80
2022-10-06T02:16:30.282Z,4.78
2022-10-06T02:17:02.568Z,3.97
2022-10-06T02:17:34.523Z,6.90
2022-10-06T02:18:06.627Z,3.92
2022-10-06T02:18:38.552Z,4.97
2022-10-06T02:19:10.514Z,5.90
2022-10-06T02:19:42.443Z,4.25
2022-10-06T02:20:14.767Z,4.15
2022-10-06T02:20:46.716Z,5.70
2022-10-06T02:21:20.446Z,8.18
2022-10-06T02:21:52.410Z,4.25
2022-10-06T02:22:24.409Z,5.30
2022-10-06T02:22:56.320Z,4.15
2022-10-06T02:23:29.668Z,6.50
2022-10-06T02:24:01.979Z,6.55
2022-10-06T02:24:34.200Z,3.85
2022-10-06T02:25:06.507Z,5.60
2022-10-06T02:25:38.892Z,3.53
2022-10-06T02:26:12.510Z,5.35
2022-10-06T02:26:44.469Z,6.43
2022-10-06T02:27:17.062Z,6.85
2022-10-06T02:27:49.259Z,7.18
2022-10-06T02:28:21.378Z,6.43
2022-10-06T02:28:53.446Z,5.50
2022-10-06T02:29:28.604Z,4.95
2022-10-06T02:30:01.692Z,6.45
2022-10-06T02:30:34.981Z,4.60
2022-10-06T02:31:08.637Z,5.47
2022-10-06T02:31:42.042Z,5.93
2022-10-06T02:32:14.142Z,5.72
2022-10-06T02:32:46.287Z,7.30
2022-10-06T02:33:18.833Z,5.03
2022-10-06T02:33:51.637Z,5.50
2022-10-06T02:34:24.401Z,7.13
2022-10-06T02:34:57.151Z,5.75
2022-10-06T02:35:29.133Z,2.93
2022-10-06T02:36:01.140Z,3.45
2022-10-06T02:36:33.727Z,5.15
2022-10-06T02:37:05.774Z,5.28
2022-10-06T02:37:37.761Z,5.40
2022-10-06T02:38:11.000Z,9.50
2022-10-06T02:38:43.507Z,7.72
2022-10-06T02:39:15.646Z,8.23
2022-10-06T02:39:47.599Z,6.65
2022-10-06T02:40:19.647Z,7.47
2022-10-06T02:40:52.891Z,7.05
2022-10-06T02:41:25.619Z,10.00
2022-10-06T02:41:57.570Z,5.22
2022-10-06T02:42:29.719Z,3.78
2022-10-06T02:43:01.793Z,7.10
2022-10-06T02:43:34.511Z,6.15
2022-10-06T02:44:06.704Z,5.45
2022-10-06T02:44:38.651Z,4.45
2022-10-06T02:45:10.703Z,6.50
2022-10-06T02:45:43.227Z,4.97
2022-10-06T02:46:15.511Z,3.30
2022-10-06T02:46:53.980Z,6.78
2022-10-06T02:47:26.069Z,7.68
2022-10-06T02:47:58.826Z,5.15
2022-10-06T02:48:31.694Z,9.32
2022-10-06T02:49:03.792Z,5.32
2022-10-06T02:49:35.715Z,5.55
2022-10-06T02:50:08.050Z,4.93
2022-10-06T02:50:40.427Z,6.70
2022-10-06T02:51:17.073Z,6.40
2022-10-06T02:51:49.920Z,6.13
2022-10-06T02:52:23.461Z,6.80
2022-10-06T02:52:55.723Z,7.40
2022-10-06T02:53:28.001Z,8.75
2022-10-06T02:54:00.248Z,3.83
2022-10-06T02:54:33.919Z,4.82
2022-10-06T02:55:06.402Z,7.03
2022-10-06T02:55:39.117Z,6.75
2022-10-06T02:56:12.865Z,8.23
2022-10-06T02:56:45.472Z,5.67
2022-10-06T02:57:18.297Z,4.53
2022-10-06T02:57:50.283Z,4.32
2022-10-06T02:58:22.273Z,4.72
2022-10-06T02:58:54.465Z,7.15
2022-10-06T02:59:38.924Z,3.85
2022-10-06T03:00:11.293Z,8.87
2022-10-06T03:00:43.264Z,5.70
2022-10-06T03:01:16.651Z,7.45
2022-10-06T03:01:49.024Z,6.43
2022-10-06T03:02:23.492Z,8.60
2022-10-06T03:02:55.837Z,7.15
2022-10-06T03:03:27.859Z,5.88
2022-10-06T03:04:00.236Z,6.03
2022-10-06T03:04:32.306Z,3.92
2022-10-06T03:05:04.585Z,5.22
2022-10-06T03:05:36.567Z,4.43
2022-10-06T03:06:21.788Z,6.97
2022-10-06T03:06:59.456Z,7.25
2022-10-06T03:07:36.370Z,6.47
2022-10-06T03:08:10.230Z,7.50
2022-10-06T03:08:42.235Z,6.45
2022-10-06T03:09:14.176Z,6.82
2022-10-06T03:09:48.449Z,3.40
2022-10-06T03:10:20.398Z,6.30
2022-10-06T03:10:52.359Z,6.28
2022-10-06T03:11:28.577Z,6.47
2022-10-06T03:12:00.591Z,8.07
2022-10-06T03:12:42.683Z,4.80
2022-10-06T03:13:14.697Z,7.30
2022-10-06T03:13:47.226Z,5.35
2022-10-06T03:14:22.085Z,8.83
2022-10-06T03:14:57.949Z,3.33
2022-10-06T03:15:30.291Z,7.53
2022-10-06T03:16:02.870Z,5.83
2022-10-06T03:16:38.662Z,8.13
2022-10-06T03:17:13.041Z,6.18
2022-10-06T03:17:52.478Z,6.75
2022-10-06T03:18:24.821Z,7.43
2022-10-06T03:18:56.960Z,8.00
2022-10-06T03:19:28.927Z,5.85
2022-10-06T03:20:00.958Z,4.82
2022-10-06T03:20:32.995Z,7.00
2022-10-06T03:21:05.548Z,8.15
2022-10-06T03:21:40.293Z,5.00
2022-10-06T03:22:12.347Z,6.00
2022-10-06T03:22:53.260Z,8.13
2022-10-06T03:23:25.539Z,8.27
2022-10-06T03:23:58.237Z,3.33
2022-10-06T03:24:31.963Z,6.70
2022-10-06T03:25:04.815Z,7.60
2022-10-06T03:25:37.584Z,8.33
2022-10-06T03:26:10.704Z,7.00
2022-10-06T03:26:44.185Z,7.38
2022-10-06T03:27:16.741Z,6.37
2022-10-06T03:27:48.791Z,5.60
2022-10-06T03:28:21.113Z,6.53
2022-10-06T03:28:53.620Z,6.97
2022-10-06T03:29:25.913Z,6.05
2022-10-06T03:30:01.152Z,5.70
2022-10-06T03:30:36.251Z,4.93
2022-10-06T03:31:08.940Z,4.90
2022-10-06T03:31:41.127Z,4.73
2022-10-06T03:32:13.154Z,5.15
2022-10-06T03:32:45.151Z,4.40
2022-10-06T03:33:17.198Z,7.65
2022-10-06T03:33:49.286Z,5.60
2022-10-06T03:34:21.373Z,4.72
2022-10-06T03:34:53.370Z,4.10
2022-10-06T03:35:25.718Z,6.93
2022-10-06T03:35:58.663Z,4.32
2022-10-06T03:36:33.421Z,5.93
2022-10-06T03:37:06.546Z,7.75
2022-10-06T03:37:38.514Z,7.00
2022-10-06T03:38:10.619Z,7.40
2022-10-06T03:38:43.040Z,7.55
2022-10-06T03:39:15.001Z,7.97
2022-10-06T03:39:47.649Z,8.50
2022-10-06T03:40:19.781Z,7.37
2022-10-06T03:40:51.776Z,7.50
2022-10-06T03:41:25.246Z,4.75
2022-10-06T03:41:57.259Z,6.72
2022-10-06T03:42:29.280Z,8.05
2022-10-06T03:43:02.024Z,6.78
2022-10-06T03:43:34.383Z,9.88
2022-10-06T03:44:06.617Z,7.40
2022-10-06T03:44:40.193Z,5.13
2022-10-06T03:45:12.663Z,7.10
2022-10-06T03:45:54.742Z,4.85
2022-10-06T03:46:28.388Z,8.02
2022-10-06T03:47:00.902Z,6.78
2022-10-06T03:47:32.933Z,8.00
2022-10-06T03:48:04.936Z,7.95
2022-10-06T03:48:37.127Z,8.68
2022-10-06T03:49:09.334Z,5.73
2022-10-06T03:49:41.307Z,7.85
2022-10-06T03:50:14.155Z,8.73
2022-10-06T03:50:53.311Z,6.63
2022-10-06T03:51:31.099Z,9.77
2022-10-06T03:52:03.072Z,8.70
2022-10-06T03:52:39.532Z,6.47
2022-10-06T03:53:11.496Z,7.50
2022-10-06T03:53:44.465Z,8.50
2022-10-06T03:54:16.479Z,4.40
2022-10-06T03:54:51.174Z,8.40
2022-10-06T03:55:23.147Z,9.90
2022-10-06T03:56:05.851Z,4.68
2022-10-06T03:56:39.937Z,5.50
2022-10-06T03:57:12.344Z,8.20
2022-10-06T03:57:44.475Z,6.95
2022-10-06T03:58:16.920Z,7.35
2022-10-06T03:58:53.353Z,7.70
2022-10-06T03:59:31.298Z,6.30
2022-10-06T04:00:03.975Z,7.40
2022-10-06T04:00:46.313Z,5.87
2022-10-06T04:01:21.095Z,5.68
2022-10-06T04:01:57.178Z,4.85
2022-10-06T04:02:32.679Z,6.78
2022-10-06T04:03:04.975Z,7.28
2022-10-06T04:03:36.982Z,10.38
2022-10-06T04:04:09.870Z,9.38
2022-10-06T04:04:41.923Z,7.10
2022-10-06T04:05:15.788Z,9.50
2022-10-06T04:05:54.857Z,5.50
2022-10-06T04:06:28.081Z,8.67
2022-10-06T04:07:00.252Z,9.97
2022-10-06T04:07:32.254Z,6.25
2022-10-06T04:08:04.226Z,5.05
2022-10-06T04:08:36.257Z,9.05
2022-10-06T04:09:14.709Z,8.88
2022-10-06T04:09:47.599Z,7.07
2022-10-06T04:10:21.364Z,6.05
2022-10-06T04:10:53.711Z,6.37
2022-10-06T04:11:27.058Z,9.27
2022-10-06T04:11:59.017Z,6.32
2022-10-06T04:12:31.055Z,7.17
2022-10-06T04:13:02.996Z,7.40
2022-10-06T04:13:35.303Z,10.93
2022-10-06T04:14:08.436Z,8.63
2022-10-06T04:14:40.957Z,9.68
2022-10-06T04:15:13.939Z,7.53
2022-10-06T04:15:46.731Z,7.20
2022-10-06T04:16:20.407Z,6.70
2022-10-06T04:16:52.560Z,6.45
2022-10-06T04:17:32.413Z,8.55
2022-10-06T04:18:04.374Z,8.95
2022-10-06T04:18:36.670Z,7.63
2022-10-06T04:19:10.010Z,5.70
2022-10-06T04:19:44.736Z,5.30
2022-10-06T04:20:16.748Z,8.80
2022-10-06T04:20:48.708Z,6.78
2022-10-06T04:21:20.950Z,9.85
2022-10-06T04:21:52.893Z,9.10
2022-10-06T04:22:28.075Z,9.73
2022-10-06T04:23:00.058Z,10.10
2022-10-06T04:23:32.264Z,9.97
2022-10-06T04:24:04.642Z,8.03
2022-10-06T04:24:36.699Z,8.68
2022-10-06T04:25:08.954Z,9.80
2022-10-06T04:25:41.023Z,6.85
2022-10-06T04:26:17.533Z,6.17
2022-10-06T04:26:53.005Z,9.60
2022-10-06T04:27:29.068Z,10.70
2022-10-06T04:28:10.951Z,9.73
2022-10-06T04:28:46.422Z,6.63
2022-10-06T04:29:18.633Z,8.13
2022-10-06T04:29:53.993Z,7.40
2022-10-06T04:30:26.651Z,5.53
2022-10-06T04:30:59.382Z,5.67
2022-10-06T04:31:33.124Z,10.68
2022-10-06T04:32:05.294Z,6.53
2022-10-06T04:32:40.289Z,9.07
2022-10-06T04:33:12.331Z,8.30
2022-10-06T04:33:45.708Z,7.40
2022-10-06T04:34:18.128Z,10.32
2022-10-06T04:34:51.377Z,7.65
2022-10-06T04:35:23.453Z,7.47
2022-10-06T04:35:58.575Z,6.25
2022-10-06T04:36:32.208Z,7.10
2022-10-06T04:37:04.226Z,6.30
2022-10-06T04:37:36.289Z,8.43
2022-10-06T04:38:09.253Z,6.87
2022-10-06T04:38:41.441Z,8.23
2022-10-06T04:39:13.442Z,8.02
2022-10-06T04:39:48.983Z,10.03
2022-10-06T04:40:21.047Z,8.57
2022-10-06T04:40:53.070Z,8.90
2022-10-06T04:41:34.859Z,8.30
2022-10-06T04:42:07.409Z,8.80
2022-10-06T04:42:40.193Z,9.95
2022-10-06T04:43:15.783Z,6.83
2022-10-06T04:43:48.688Z,7.23
2022-10-06T04:44:20.830Z,6.63
2022-10-06T04:44:53.245Z,6.60
2022-10-06T04:45:25.530Z,7.83
2022-10-06T04:45:58.478Z,12.07
2022-10-06T04:46:42.700Z,9.63
2022-10-06T04:47:16.011Z,9.80
2022-10-06T04:47:48.481Z,5.68
2022-10-06T04:48:20.540Z,9.37
2022-10-06T04:48:53.648Z,9.23
2022-10-06T04:49:27.291Z,8.60
2022-10-06T04:50:00.047Z,8.93
2022-10-06T04:50:32.025Z,9.70
2022-10-06T04:51:14.718Z,9.68
2022-10-06T04:51:47.409Z,9.93
2022-10-06T04:52:19.356Z,6.27
2022-10-06T04:52:52.991Z,7.30
2022-10-06T04:53:25.235Z,8.67
2022-10-06T04:53:57.243Z,7.83
2022-10-06T04:54:33.513Z,9.87
2022-10-06T04:55:06.875Z,9.93
2022-10-06T04:55:39.262Z,9.67
2022-10-06T04:56:12.260Z,9.18
2022-10-06T04:56:44.409Z,11.05
2022-10-06T04:57:16.497Z,7.77
2022-10-06T04:57:48.500Z,9.63
2022-10-06T04:58:20.465Z,6.27
2022-10-06T04:58:53.628Z,6.43
2022-10-06T04:59:46.100Z,10.27
2022-10-06T05:00:24.127Z,6.80
2022-10-06T05:00:56.637Z,8.90
2022-10-06T05:01:30.252Z,9.13
2022-10-06T05:02:03.232Z,7.37
2022-10-06T05:02:36.263Z,11.02
2022-10-06T05:03:08.342Z,8.53
2022-10-06T05:03:40.481Z,8.57
2022-10-06T05:04:12.464Z,11.57
2022-10-06T05:04:45.169Z,10.33
2022-10-06T05:05:18.559Z,6.00
2022-10-06T05:05:50.919Z,11.30
2022-10-06T05:06:27.492Z,7.37
2022-10-06T05:07:02.130Z,9.37
2022-10-06T05:07:34.163Z,8.63
2022-10-06T05:08:06.106Z,8.10
2022-10-06T05:08:38.534Z,9.32
2022-10-06T05:09:12.003Z,7.53
2022-10-06T05:09:48.192Z,8.35
2022-10-06T05:10:20.222Z,9.15
2022-10-06T05:10:58.540Z,11.23
2022-10-06T05:11:31.850Z,8.40
2022-10-06T05:12:04.350Z,7.68
2022-10-06T05:12:36.790Z,9.15
2022-10-06T05:13:12.518Z,10.77
2022-10-06T05:13:44.516Z,6.20
2022-10-06T05:14:16.520Z,6.95
2022-10-06T05:14:52.108Z,12.17
2022-10-06T05:15:24.273Z,8.57
2022-10-06T05:15:57.010Z,8.45
2022-10-06T05:16:29.960Z,7.27
2022-10-06T05:17:02.111Z,7.47
2022-10-06T05:17:35.560Z,8.37
2022-10-06T05:18:07.634Z,10.60
2022-10-06T05:18:39.720Z,7.50
2022-10-06T05:19:12.331Z,9.97
2022-10-06T05:19:45.475Z,8.70
2022-10-06T05:20:18.008Z,8.07
2022-10-06T05:20:57.023Z,8.52
2022-10-06T05:21:30.019Z,14.27
2022-10-06T05:22:03.374Z,6.33
2022-10-06T05:22:37.651Z,10.27
2022-10-06T05:23:09.656Z,6.90
2022-10-06T05:23:42.485Z,6.65
2022-10-06T05:24:14.456Z,10.17
2022-10-06T05:24:46.532Z,8.60
2022-10-06T05:25:18.520Z,7.53
2022-10-06T05:25:52.626Z,6.97
2022-10-06T05:26:26.962Z,8.10
2022-10-06T05:27:02.076Z,8.03
2022-10-06T05:27:34.412Z,12.37
2022-10-06T05:28:06.847Z,9.27
2022-10-06T05:28:39.007Z,13.90
2022-10-06T05:29:11.316Z,10.03
2022-10-06T05:29:43.724Z,9.50
2022-10-06T05:30:15.751Z,8.55
2022-10-06T05:31:07.944Z,8.13
2022-10-06T05:31:42.995Z,8.13
2022-10-06T05:32:15.492Z,12.30
2022-10-06T05:32:50.416Z,8.63
2022-10-06T05:33:23.138Z,11.05
2022-10-06T05:33:55.861Z,11.30
2022-10-06T05:34:27.832Z,8.73
2022-10-06T05:34:59.785Z,8.87
2022-10-06T05:35:31.761Z,12.63
2022-10-06T05:36:06.050Z,12.47
2022-10-06T05:36:38.096Z,8.67
2022-10-06T05:37:12.311Z,6.85
2022-10-06T05:37:44.700Z,9.20
2022-10-06T05:38:16.777Z,7.87
2022-10-06T05:38:48.883Z,8.63
2022-10-06T05:39:20.985Z,7.63
2022-10-06T05:40:00.289Z,10.40
2022-10-06T05:40:32.259Z,8.17
2022-10-06T05:41:08.424Z,6.47
2022-10-06T05:41:40.364Z,9.53
2022-10-06T05:42:14.686Z,6.63
2022-10-06T05:42:47.286Z,8.93
2022-10-06T05:43:19.308Z,9.73
2022-10-06T05:43:51.630Z,7.33
2022-10-06T05:44:23.602Z,7.63
2022-10-06T05:44:55.586Z,8.87
2022-10-06T05:45:27.557Z,9.73
2022-10-06T05:46:00.655Z,13.10
2022-10-06T05:46:33.577Z,10.43
2022-10-06T05:47:06.025Z,11.67
2022-10-06T05:47:37.998Z,8.83
2022-10-06T05:48:10.596Z,8.65
2022-10-06T05:48:44.563Z,7.70
2022-10-06T05:49:16.806Z,9.17
2022-10-06T05:50:00.554Z,6.15
2022-10-06T05:50:32.484Z,6.87
2022-10-06T05:51:08.449Z,7.87
2022-10-06T05:51:42.144Z,12.27
2022-10-06T05:52:24.916Z,8.83
2022-10-06T05:52:57.158Z,8.37
2022-10-06T05:53:29.912Z,8.13
2022-10-06T05:54:02.293Z,11.37
2022-10-06T05:54:34.491Z,13.10
2022-10-06T05:55:06.592Z,6.93
2022-10-06T05:55:38.609Z,7.20
2022-10-06T05:56:10.620Z,7.27
2022-10-06T05:56:44.142Z,13.57
2022-10-06T05:57:16.181Z,10.60
2022-10-06T05:57:48.174Z,9.20
2022-10-06T05:58:20.113Z,9.73
2022-10-06T05:58:53.264Z,11.90
2022-10-06T05:59:25.396Z,7.30
2022-10-06T05:59:59.609Z,14.43
2022-10-06T06:00:31.693Z,11.90
2022-10-06T06:01:07.757Z,9.37
2022-10-06T06:01:41.153Z,8.93
2022-10-06T06:02:20.811Z,9.90
2022-10-06T06:02:52.854Z,11.40
2022-10-06T06:03:24.936Z,8.13
2022-10-06T06:04:01.216Z,6.45
2022-10-06T06:04:33.659Z,9.10
2022-10-06T06:05:06.383Z,12.57
2022-10-06T06:05:42.366Z,13.33
2022-10-06T06:06:25.134Z,9.20
2022-10-06T06:06:58.961Z,9.23
2022-10-06T06:07:32.171Z,6.87
2022-10-06T06:08:04.387Z,8.17
2022-10-06T06:08:36.552Z,5.93
2022-10-06T06:09:18.557Z,7.10
2022-10-06T06:09:53.282Z,9.65
2022-10-06T06:10:25.279Z,7.90
2022-10-06T06:11:04.687Z,8.33
2022-10-06T06:11:37.834Z,7.47
2022-10-06T06:12:09.858Z,8.25
2022-10-06T06:12:48.609Z,10.13
2022-10-06T06:13:40.989Z,10.57
2022-10-06T06:14:19.237Z,8.17
2022-10-06T06:15:11.677Z,13.43
2022-10-06T06:16:00.707Z,9.60
2022-10-06T06:16:33.754Z,8.87
2022-10-06T06:17:05.985Z,12.47
2022-10-06T06:17:37.963Z,7.73
2022-10-06T06:18:12.327Z,9.33
2022-10-06T06:18:44.745Z,8.13
2022-10-06T06:19:18.651Z,10.23
2022-10-06T06:19:51.505Z,7.67
2022-10-06T06:20:23.517Z,9.30
2022-10-06T06:20:57.307Z,7.53
2022-10-06T06:21:29.802Z,10.30
2022-10-06T06:22:02.156Z,8.90
2022-10-06T06:22:35.924Z,7.30
2022-10-06T06:23:09.580Z,8.53
2022-10-06T06:23:46.462Z,9.10
2022-10-06T06:24:19.553Z,8.60
2022-10-06T06:24:51.565Z,7.40
2022-10-06T06:25:24.275Z,6.57
2022-10-06T06:26:01.975Z,5.37
2022-10-06T06:26:36.710Z,7.13
2022-10-06T06:27:09.444Z,9.80
2022-10-06T06:27:42.088Z,8.50
2022-10-06T06:28:14.136Z,7.50
2022-10-06T06:28:47.615Z,10.87
2022-10-06T06:29:23.227Z,8.13
2022-10-06T06:29:55.871Z,8.87
2022-10-06T06:30:28.132Z,6.53
2022-10-06T06:31:02.633Z,10.00
2022-10-06T06:31:38.774Z,7.20
2022-10-06T06:32:11.796Z,5.47
2022-10-06T06:32:43.805Z,7.70
2022-10-06T06:33:15.747Z,7.63
2022-10-06T06:33:48.431Z,6.63
2022-10-06T06:34:21.063Z,7.00
2022-10-06T06:34:53.182Z,7.23
2022-10-06T06:35:25.177Z,9.37
2022-10-06T06:35:58.081Z,8.50
2022-10-06T06:36:37.067Z,10.33
2022-10-06T06:37:15.226Z,8.27
2022-10-06T06:37:49.106Z,7.43
2022-10-06T06:38:21.079Z,6.43
2022-10-06T06:38:54.064Z,6.87
2022-10-06T06:39:26.713Z,7.27
2022-10-06T06:39:58.831Z,6.30
2022-10-06T06:40:30.894Z,9.37
2022-10-06T06:41:03.163Z,6.53
2022-10-06T06:41:37.835Z,6.93
2022-10-06T06:42:28.596Z,8.07
2022-10-06T06:43:21.183Z,7.40
2022-10-06T06:44:18.900Z,8.87
2022-10-06T06:45:03.856Z,6.50
2022-10-06T06:45:40.734Z,7.60
2022-10-06T06:47:14.175Z,8.47
2022-10-06T06:47:47.909Z,5.53
2022-10-06T06:48:19.901Z,7.90
2022-10-06T06:48:52.659Z,8.83
2022-10-06T06:49:24.821Z,9.97
2022-10-06T06:50:02.879Z,4.73
2022-10-06T06:50:35.647Z,7.03
2022-10-06T06:51:11.192Z,8.30
2022-10-06T06:51:44.330Z,9.30
2022-10-06T06:52:17.295Z,6.00
2022-10-06T06:52:49.242Z,8.83
2022-10-06T06:53:21.253Z,8.27
2022-10-06T06:53:53.614Z,6.97
2022-10-06T06:54:27.669Z,8.10
2022-10-06T06:55:05.853Z,8.93
2022-10-06T06:55:47.469Z,8.27
2022-10-06T06:56:21.537Z,6.00
2022-10-06T06:56:55.216Z,7.10
2022-10-06T06:57:27.550Z,6.07
2022-10-06T06:58:02.000Z,8.13
2022-10-06T06:58:34.452Z,7.83
2022-10-06T06:59:10.525Z,6.47
2022-10-06T06:59:42.541Z,6.50
2022-10-06T07:00:17.173Z,5.07
2022-10-06T07:00:50.429Z,5.13
2022-10-06T07:01:22.941Z,6.97
2022-10-06T07:01:55.055Z,6.97
2022-10-06T07:02:29.206Z,8.83
2022-10-06T07:03:02.005Z,6.40
2022-10-06T07:03:56.704Z,7.13
2022-10-06T07:04:28.819Z,5.33
2022-10-06T07:05:01.277Z,6.43
2022-10-06T07:05:33.358Z,10.87
2022-10-06T07:06:09.448Z,5.22
2022-10-06T07:06:41.935Z,7.40
2022-10-06T07:07:13.967Z,5.47
2022-10-06T07:07:46.856Z,8.30
2022-10-06T07:08:20.585Z,8.43
2022-10-06T07:08:53.375Z,7.60
2022-10-06T07:09:28.385Z,5.50
2022-10-06T07:10:06.345Z,7.37
2022-10-06T07:10:39.417Z,7.87
2022-10-06T07:11:16.356Z,6.30
2022-10-06T07:11:50.209Z,6.53
2022-10-06T07:12:25.340Z,8.43
2022-10-06T07:13:03.919Z,7.20
2022-10-06T07:13:35.903Z,8.10
2022-10-06T07:14:09.398Z,10.27
2022-10-06T07:15:01.329Z,9.85
2022-10-06T07:15:54.456Z,9.80
2022-10-06T07:16:45.690Z,5.57
2022-10-06T07:17:36.142Z,5.90
2022-10-06T07:18:28.485Z,10.10
2022-10-06T07:19:24.462Z,7.30
2022-10-06T07:20:17.298Z,7.83
2022-10-06T07:21:08.022Z,7.97
2022-10-06T07:21:59.046Z,7.60
2022-10-06T07:22:49.507Z,6.57
2022-10-06T07:23:55.483Z,7.33
2022-10-06T07:24:46.173Z,7.90
2022-10-06T07:25:26.031Z,5.87
2022-10-06T07:26:04.582Z,12.23
2022-10-06T07:26:36.715Z,9.00
2022-10-06T07:27:08.793Z,6.80
2022-10-06T07:27:42.307Z,7.97
2022-10-06T07:28:17.167Z,8.10
2022-10-06T07:28:49.557Z,6.30
2022-10-06T07:29:22.531Z,7.67
2022-10-06T07:29:56.634Z,5.28
2022-10-06T07:30:29.034Z,7.30
2022-10-06T07:31:07.324Z,8.23
2022-10-06T07:31:41.116Z,8.10